Time;durP1;ratioP1;P1;durP2;ratioP2;P2;SDS_P1;SDS_P2;PMS_P1;PMS_P2;Temp;Humidity;BMP_temperature;BMP_pressure;BME280_temperature;BME280_humidity;BME280_pressure;Samples;Min_cycle;Max_cycle;Signal;HPM_P1;HPM_P2
2023/11/16 00:00:23;;;;;;;13.63;8.53;;;;;21.10;100471.00;;;;2072719;28;20296;-64
2023/11/16 00:01:28;;;;;;;13.57;8.68;;;;;21.10;100466.00;;;;2072232;28;20214;-64
2023/11/16 00:02:29;;;;;;;13.85;8.93;;;;;21.20;100461.00;;;;2072843;28;20233;-64
2023/11/16 00:03:31;;;;;;;11.85;8.73;;;;;21.10;100460.00;;;;2062015;28;20312;-64
2023/11/16 00:04:34;;;;;;;13.00;9.30;;;;;21.20;100470.00;;;;2072781;28;20217;-64
2023/11/16 00:05:35;;;;;;;12.55;8.73;;;;;21.10;100463.00;;;;2071591;28;20465;-64
2023/11/16 00:06:36;;;;;;;11.48;8.00;;;;;21.10;100391.00;;;;2072658;28;20682;-64
2023/11/16 00:07:36;;;;;;;13.75;7.30;;;;;21.20;100456.00;;;;2071924;28;20218;-64
2023/11/16 00:08:37;;;;;;;15.33;8.30;;;;;21.20;100455.00;;;;2060327;28;20672;-64
2023/11/16 00:09:37;;;;;;;10.53;7.90;;;;;21.20;100454.00;;;;2071999;28;20717;-64
2023/11/16 00:10:39;;;;;;;13.17;8.20;;;;;21.20;100451.00;;;;2067397;28;20717;-64
2023/11/16 00:11:40;;;;;;;10.27;7.03;;;;;21.20;100456.00;;;;2071346;28;20268;-64
2023/11/16 00:12:41;;;;;;;12.80;8.23;;;;;21.20;100468.00;;;;2071789;28;20221;-64
2023/11/16 00:13:41;;;;;;;12.47;7.97;;;;;21.20;100458.00;;;;2062600;28;20222;-64
2023/11/16 00:14:42;;;;;;;11.10;7.50;;;;;21.10;100443.00;;;;2071909;28;20297;-64
2023/11/16 00:15:42;;;;;;;11.97;7.20;;;;;21.20;100459.00;;;;2070744;28;20214;-64
2023/11/16 00:16:44;;;;;;;11.00;7.20;;;;;21.10;100457.00;;;;2071362;28;20245;-64
2023/11/16 00:17:44;;;;;;;10.95;7.45;;;;;21.10;100460.00;;;;2071915;28;20328;-64
2023/11/16 00:18:46;;;;;;;13.03;7.00;;;;;21.20;100465.00;;;;2063007;28;20758;-63
2023/11/16 00:19:47;;;;;;;11.70;7.43;;;;;21.10;100462.00;;;;2071810;28;20283;-63
2023/11/16 00:20:47;;;;;;;10.57;6.43;;;;;21.10;100455.00;;;;2072005;28;20225;-63
2023/11/16 00:21:47;;;;;;;12.40;7.67;;;;;21.10;100460.00;;;;2073277;28;20264;-63
2023/11/16 00:22:48;;;;;;;8.70;6.47;;;;;21.10;100455.00;;;;2068218;28;20218;-63
2023/11/16 00:23:48;;;;;;;10.33;6.80;;;;;21.10;100470.00;;;;2062876;28;20685;-63
2023/11/16 00:24:49;;;;;;;10.20;6.50;;;;;21.10;100462.00;;;;2071736;28;20682;-63
2023/11/16 00:25:49;;;;;;;10.70;6.33;;;;;21.10;100458.00;;;;2072447;28;20268;-63
2023/11/16 00:26:50;;;;;;;8.70;6.33;;;;;21.10;100425.00;;;;2066202;28;20219;-63
2023/11/16 00:27:50;;;;;;;8.98;6.05;;;;;21.10;100456.00;;;;2070706;28;20245;-63
2023/11/16 00:28:54;;;;;;;7.23;5.60;;;;;21.20;100461.00;;;;2061267;28;20343;-63
2023/11/16 00:29:55;;;;;;;9.98;6.53;;;;;21.10;100463.00;;;;2064792;28;20714;-63
2023/11/16 00:30:55;;;;;;;11.07;6.10;;;;;21.10;100456.00;;;;2073523;28;20256;-63
2023/11/16 00:31:55;;;;;;;9.57;6.10;;;;;21.10;100448.00;;;;2069467;28;20219;-63
2023/11/16 00:32:56;;;;;;;9.57;6.30;;;;;21.10;100457.00;;;;2072171;28;20315;-63
2023/11/16 00:33:57;;;;;;;8.87;5.63;;;;;21.10;100461.00;;;;2061133;28;20243;-63
2023/11/16 00:34:57;;;;;;;9.15;6.28;;;;;21.10;100453.00;;;;2072117;28;20806;-63
2023/11/16 00:35:58;;;;;;;10.47;5.97;;;;;21.10;100462.00;;;;2072437;28;20225;-63
2023/11/16 00:36:58;;;;;;;10.40;6.00;;;;;21.10;100453.00;;;;2071237;28;20222;-63
2023/11/16 00:37:59;;;;;;;10.10;6.77;;;;;21.10;100454.00;;;;2065046;28;20210;-65
2023/11/16 00:38:59;;;;;;;8.93;5.70;;;;;21.10;100456.00;;;;2062107;28;20221;-64
2023/11/16 00:40:00;;;;;;;8.83;5.30;;;;;21.10;100455.00;;;;2071692;28;20449;-64
2023/11/16 00:41:00;;;;;;;8.83;5.27;;;;;21.10;100385.00;;;;2071990;28;20214;-64
2023/11/16 00:42:01;;;;;;;10.90;5.60;;;;;21.10;100463.00;;;;2071448;28;20220;-64
2023/11/16 00:43:01;;;;;;;7.93;5.50;;;;;21.00;100459.00;;;;2071645;28;20232;-64
2023/11/16 00:44:05;;;;;;;7.77;5.20;;;;;21.10;100466.00;;;;2060989;28;20210;-64
2023/11/16 00:45:06;;;;;;;8.38;5.70;;;;;21.00;100460.00;;;;2071025;28;20224;-64
2023/11/16 00:46:08;;;;;;;11.63;5.80;;;;;21.00;100469.00;;;;2069485;28;20223;-64
2023/11/16 00:47:09;;;;;;;9.45;5.40;;;;;21.00;100460.00;;;;2071614;28;20208;-64
2023/11/16 00:48:09;;;;;;;7.00;4.60;;;;;21.00;100463.00;;;;2061452;28;20218;-64
2023/11/16 00:49:09;;;;;;;9.67;5.40;;;;;21.00;100455.00;;;;2071625;28;20217;-64
2023/11/16 00:50:10;;;;;;;8.33;5.33;;;;;21.00;100458.00;;;;2071131;28;20265;-64
2023/11/16 00:51:11;;;;;;;8.90;5.00;;;;;21.00;100457.00;;;;2068269;28;20234;-63
2023/11/16 00:52:12;;;;;;;7.57;4.67;;;;;21.00;100447.00;;;;2057991;28;20215;-63
2023/11/16 00:53:13;;;;;;;7.20;4.97;;;;;21.10;100457.00;;;;2060859;28;20688;-63
2023/11/16 00:54:14;;;;;;;7.65;4.82;;;;;21.00;100451.00;;;;2072357;28;20208;-63
2023/11/16 00:55:15;;;;;;;7.07;4.43;;;;;21.00;100449.00;;;;2072184;28;20214;-63
2023/11/16 00:56:17;;;;;;;9.77;4.47;;;;;21.10;100445.00;;;;2071855;28;20309;-63
2023/11/16 00:57:18;;;;;;;7.22;4.45;;;;;21.10;100418.00;;;;2072033;28;20205;-63
2023/11/16 00:58:21;;;;;;;9.50;5.00;;;;;21.10;100439.00;;;;2061748;28;20203;-63
2023/11/16 00:59:22;;;;;;;8.05;4.30;;;;;21.00;100444.00;;;;2072186;28;20229;-63
2023/11/16 01:00:23;;;;;;;8.65;4.25;;;;;21.00;100442.00;;;;2071524;28;20210;-63
2023/11/16 01:01:23;;;;;;;6.43;4.03;;;;;21.00;100456.00;;;;2072243;28;20556;-63
2023/11/16 01:02:25;;;;;;;8.20;4.63;;;;;21.00;100440.00;;;;2072389;28;20681;-63
2023/11/16 01:03:26;;;;;;;6.70;4.05;;;;;21.00;100436.00;;;;2061514;28;20234;-63
2023/11/16 01:04:26;;;;;;;7.60;4.22;;;;;21.00;100444.00;;;;2072111;28;20229;-63
2023/11/16 01:05:28;;;;;;;6.50;4.17;;;;;21.00;100432.00;;;;2069934;28;20228;-63
2023/11/16 01:06:29;;;;;;;7.65;4.82;;;;;21.00;100431.00;;;;2071581;28;20226;-63
2023/11/16 01:07:30;;;;;;;7.90;4.07;;;;;21.00;100436.00;;;;2071637;28;20224;-63
2023/11/16 01:08:33;;;;;;;8.80;5.00;;;;;21.00;100439.00;;;;2061474;28;20892;-63
2023/11/16 01:09:35;;;;;;;5.60;3.80;;;;;21.00;100443.00;;;;2072126;28;20453;-63
2023/11/16 01:10:43;;;;;;;7.30;4.07;;;;;21.00;100441.00;;;;2070541;28;20614;-63
2023/11/16 01:11:43;;;;;;;5.82;3.65;;;;;21.00;100443.00;;;;2071767;28;20229;-63
2023/11/16 01:12:44;;;;;;;6.27;4.23;;;;;21.00;100443.00;;;;2066674;28;20690;-64
2023/11/16 01:13:46;;;;;;;10.80;4.23;;;;;21.00;100435.00;;;;2060836;28;20211;-64
2023/11/16 01:14:52;;;;;;;6.75;3.95;;;;;21.00;100450.00;;;;2071002;28;20242;-64
2023/11/16 01:15:56;;;;;;;7.13;4.55;;;;;21.00;100445.00;;;;2070945;28;20211;-64
2023/11/16 01:17:02;;;;;;;6.78;4.10;;;;;21.00;100437.00;;;;2071066;28;20222;-64
2023/11/16 01:18:05;;;;;;;6.53;3.85;;;;;21.00;100438.00;;;;2063241;28;20214;-64
2023/11/16 01:19:08;;;;;;;7.90;4.30;;;;;21.00;100428.00;;;;2071198;28;20793;-64
2023/11/16 01:20:18;;;;;;;6.43;3.67;;;;;21.00;100411.00;;;;2070125;28;20205;-64
2023/11/16 01:21:18;;;;;;;4.60;2.90;;;;;21.00;100454.00;;;;2064120;28;20263;-64
2023/11/16 01:22:21;;;;;;;6.20;4.70;;;;;21.00;100437.00;;;;2067238;28;20769;-64
2023/11/16 01:23:21;;;;;;;7.30;3.60;;;;;21.00;100437.00;;;;2061621;28;20933;-64
2023/11/16 01:24:24;;;;;;;7.37;3.40;;;;;21.00;100444.00;;;;2071669;28;20268;-64
2023/11/16 01:25:25;;;;;;;6.05;3.55;;;;;21.00;100443.00;;;;2068341;28;20238;-64
2023/11/16 01:26:28;;;;;;;5.35;3.45;;;;;21.00;100432.00;;;;2067755;28;20225;-64
2023/11/16 01:27:30;;;;;;;5.30;2.95;;;;;21.00;100434.00;;;;2067256;28;20226;-64
2023/11/16 01:28:35;;;;;;;4.82;3.53;;;;;21.00;100438.00;;;;2058825;28;20213;-64
2023/11/16 01:29:35;;;;;;;5.93;3.53;;;;;21.00;100437.00;;;;2070913;28;20690;-64
2023/11/16 01:30:36;;;;;;;5.43;3.00;;;;;20.90;100445.00;;;;2072091;28;20214;-64
2023/11/16 01:31:39;;;;;;;7.68;3.45;;;;;20.90;100437.00;;;;2071203;28;20214;-64
2023/11/16 01:32:40;;;;;;;7.30;4.38;;;;;21.00;100444.00;;;;2072009;28;20624;-64
2023/11/16 01:33:42;;;;;;;7.40;3.57;;;;;21.00;100448.00;;;;2062168;28;20241;-64
2023/11/16 01:34:44;;;;;;;6.13;3.17;;;;;20.90;100438.00;;;;2069981;28;20222;-64
2023/11/16 01:35:45;;;;;;;5.85;3.00;;;;;20.90;100445.00;;;;2069192;28;20214;-64
2023/11/16 01:36:45;;;;;;;8.03;4.77;;;;;20.90;100446.00;;;;2070384;28;20215;-64
2023/11/16 01:37:45;;;;;;;5.57;3.03;;;;;20.90;100453.00;;;;2071740;28;20237;-64
2023/11/16 01:38:46;;;;;;;9.93;3.97;;;;;20.90;100447.00;;;;2058559;28;20983;-64
2023/11/16 01:39:46;;;;;;;6.50;3.77;;;;;20.90;100446.00;;;;2069484;28;20210;-64
2023/11/16 01:40:47;;;;;;;5.23;3.13;;;;;20.90;100444.00;;;;2068423;28;20211;-64
2023/11/16 01:41:47;;;;;;;4.50;2.50;;;;;20.90;100454.00;;;;2070898;28;20240;-64
2023/11/16 01:42:49;;;;;;;4.97;3.13;;;;;20.90;100439.00;;;;2071974;28;20237;-64
2023/11/16 01:43:51;;;;;;;4.28;2.75;;;;;20.90;100439.00;;;;2060497;28;20287;-64
2023/11/16 01:44:51;;;;;;;5.72;3.30;;;;;20.90;100450.00;;;;2071128;28;20293;-64
2023/11/16 01:45:53;;;;;;;4.73;3.30;;;;;20.90;100442.00;;;;2067553;28;20226;-64
2023/11/16 01:46:54;;;;;;;5.40;3.38;;;;;20.90;100443.00;;;;2072017;28;20288;-64
2023/11/16 01:47:54;;;;;;;4.37;2.50;;;;;20.90;100439.00;;;;2062366;28;20869;-64
2023/11/16 01:48:55;;;;;;;5.90;3.40;;;;;20.90;100445.00;;;;2059960;28;21234;-64
2023/11/16 01:49:55;;;;;;;5.23;2.50;;;;;20.90;100424.00;;;;2071911;28;20662;-64
2023/11/16 01:50:56;;;;;;;6.87;3.23;;;;;20.80;100433.00;;;;2065178;28;20223;-64
2023/11/16 01:51:57;;;;;;;5.80;3.20;;;;;20.90;100446.00;;;;2078922;28;20676;-64
2023/11/16 01:53:04;;;;;;;5.35;2.50;;;;;20.90;100425.00;;;;2068726;28;20461;-64
2023/11/16 01:54:04;;;;;;;5.05;3.10;;;;;20.90;100444.00;;;;2071078;28;20220;-64
2023/11/16 01:55:05;;;;;;;8.17;3.40;;;;;20.90;100403.00;;;;2070347;28;20281;-64
2023/11/16 01:56:06;;;;;;;4.23;2.80;;;;;20.90;100434.00;;;;2070666;28;20230;-64
2023/11/16 01:57:06;;;;;;;5.65;2.85;;;;;20.80;100439.00;;;;2062892;28;20226;-64
2023/11/16 01:58:07;;;;;;;4.70;2.73;;;;;20.90;100450.00;;;;2060606;28;20217;-64
2023/11/16 01:59:07;;;;;;;4.40;2.67;;;;;20.80;100451.00;;;;2071091;28;20206;-64
2023/11/16 02:00:08;;;;;;;6.03;2.90;;;;;20.80;100445.00;;;;2064189;28;20213;-64
2023/11/16 02:01:09;;;;;;;3.40;2.17;;;;;20.90;100445.00;;;;2062943;28;20206;-64
2023/11/16 02:02:10;;;;;;;3.40;2.58;;;;;20.80;100440.00;;;;2064212;28;20213;-64
2023/11/16 02:03:11;;;;;;;4.97;2.75;;;;;20.80;100444.00;;;;2054431;28;20238;-64
2023/11/16 02:04:14;;;;;;;6.90;2.67;;;;;20.80;100439.00;;;;2071072;28;20206;-64
2023/11/16 02:05:14;;;;;;;4.72;2.70;;;;;20.80;100444.00;;;;2069699;28;20207;-64
2023/11/16 02:06:15;;;;;;;4.80;2.50;;;;;20.80;100439.00;;;;2071073;28;20242;-64
2023/11/16 02:07:16;;;;;;;7.13;3.00;;;;;20.80;100447.00;;;;2070279;28;20229;-64
2023/11/16 02:08:16;;;;;;;4.30;2.47;;;;;20.80;100443.00;;;;2060486;28;20700;-64
2023/11/16 02:09:18;;;;;;;6.97;2.67;;;;;20.80;100445.00;;;;2070843;28;20202;-64
2023/11/16 02:10:19;;;;;;;4.20;2.72;;;;;20.80;100449.00;;;;2065181;28;20262;-64
2023/11/16 02:11:19;;;;;;;5.20;2.50;;;;;20.90;100443.00;;;;2071190;28;20205;-64
2023/11/16 02:12:19;;;;;;;5.97;2.67;;;;;20.90;100442.00;;;;2070901;28;20211;-64
2023/11/16 02:13:21;;;;;;;5.47;2.90;;;;;20.80;100439.00;;;;2062045;28;20241;-64
2023/11/16 02:14:21;;;;;;;6.97;3.05;;;;;20.80;100454.00;;;;2075763;28;20285;-64
2023/11/16 02:15:21;;;;;;;5.03;2.50;;;;;20.80;100448.00;;;;2071501;28;20230;-64
2023/11/16 02:16:22;;;;;;;5.50;2.80;;;;;20.80;100434.00;;;;2071367;28;20560;-64
2023/11/16 02:17:23;;;;;;;4.87;2.40;;;;;20.80;100451.00;;;;2070739;28;20253;-64
2023/11/16 02:18:25;;;;;;;5.65;2.30;;;;;20.80;100444.00;;;;2064487;28;20226;-64
2023/11/16 02:19:30;;;;;;;5.32;2.72;;;;;20.80;100444.00;;;;2076121;28;20217;-64
2023/11/16 02:20:31;;;;;;;4.60;2.13;;;;;20.80;100455.00;;;;2076008;28;20674;-64
2023/11/16 02:21:31;;;;;;;5.20;2.80;;;;;20.80;100424.00;;;;2072775;28;20245;-64
2023/11/16 02:22:32;;;;;;;5.00;2.30;;;;;20.80;100453.00;;;;2066660;28;20219;-64
2023/11/16 02:23:33;;;;;;;4.43;2.40;;;;;20.80;100462.00;;;;2037076;28;20700;-64
2023/11/16 02:24:33;;;;;;;5.80;2.50;;;;;20.80;100461.00;;;;2062866;28;20273;-64
2023/11/16 02:25:47;;;;;;;3.33;1.70;;;;;20.80;100455.00;;;;2067025;28;20268;-64
2023/11/16 02:26:47;;;;;;;4.50;2.33;;;;;20.80;100460.00;;;;2070933;28;20566;-64
2023/11/16 02:27:48;;;;;;;8.57;2.77;;;;;20.80;100456.00;;;;2071693;28;20222;-64
2023/11/16 02:28:48;;;;;;;3.53;2.43;;;;;20.80;100455.00;;;;2056605;28;20257;-64
2023/11/16 02:29:50;;;;;;;4.73;2.20;;;;;20.80;100449.00;;;;2068986;28;20206;-64
2023/11/16 02:30:50;;;;;;;4.07;2.30;;;;;20.80;100453.00;;;;2070804;28;20203;-64
2023/11/16 02:31:53;;;;;;;5.07;2.37;;;;;20.80;100446.00;;;;2071844;28;20225;-64
2023/11/16 02:32:53;;;;;;;3.30;2.00;;;;;20.80;100446.00;;;;2071679;28;20205;-64
2023/11/16 02:33:53;;;;;;;5.83;1.87;;;;;20.80;100438.00;;;;2054978;28;20651;-64
2023/11/16 02:34:54;;;;;;;4.47;2.40;;;;;20.80;100444.00;;;;2062852;28;20587;-64
2023/11/16 02:35:54;;;;;;;4.07;2.30;;;;;20.80;100445.00;;;;2069562;28;20220;-64
2023/11/16 02:36:55;;;;;;;4.30;2.23;;;;;20.80;100448.00;;;;2071858;28;20686;-64
2023/11/16 02:37:55;;;;;;;3.10;2.03;;;;;20.80;100410.00;;;;2071347;28;20218;-64
2023/11/16 02:38:55;;;;;;;6.27;2.47;;;;;20.80;100444.00;;;;2057121;28;20295;-64
2023/11/16 02:39:56;;;;;;;5.20;2.00;;;;;20.80;100442.00;;;;2067511;28;20252;-64
2023/11/16 02:40:56;;;;;;;6.63;2.60;;;;;20.80;100439.00;;;;2065347;28;20234;-64
2023/11/16 02:41:59;;;;;;;5.57;2.43;;;;;20.80;100448.00;;;;2070721;28;20222;-64
2023/11/16 02:42:59;;;;;;;3.75;2.00;;;;;20.80;100446.00;;;;2071127;28;20214;-64
2023/11/16 02:44:00;;;;;;;7.13;2.63;;;;;20.80;100441.00;;;;2069596;28;20226;-64
2023/11/16 02:45:00;;;;;;;5.00;2.15;;;;;20.80;100443.00;;;;2071370;28;20226;-64
2023/11/16 02:46:04;;;;;;;4.60;1.90;;;;;20.70;100431.00;;;;2070737;28;20617;-64
2023/11/16 02:47:05;;;;;;;4.15;2.28;;;;;20.80;100437.00;;;;2071738;28;20630;-64
2023/11/16 02:48:06;;;;;;;4.70;2.60;;;;;20.80;100448.00;;;;2060822;28;20273;-64
2023/11/16 02:49:07;;;;;;;4.05;2.25;;;;;20.80;100434.00;;;;2078717;28;20318;-64
2023/11/16 02:50:08;;;;;;;3.63;2.40;;;;;20.70;100435.00;;;;2077959;28;20220;-64
2023/11/16 02:51:08;;;;;;;2.70;1.80;;;;;20.80;100430.00;;;;2064019;28;20246;-64
2023/11/16 02:52:11;;;;;;;3.90;2.20;;;;;20.80;100436.00;;;;2071719;28;20214;-64
2023/11/16 02:53:12;;;;;;;4.63;2.13;;;;;20.70;100437.00;;;;2061716;28;20266;-64
2023/11/16 02:54:12;;;;;;;3.67;2.10;;;;;20.70;100431.00;;;;2078997;28;20211;-64
2023/11/16 02:55:12;;;;;;;2.90;1.93;;;;;20.70;100430.00;;;;2070106;28;20260;-64
2023/11/16 02:56:13;;;;;;;5.33;2.10;;;;;20.70;100429.00;;;;2062702;28;20226;-64
2023/11/16 02:57:13;;;;;;;5.63;2.17;;;;;20.70;100430.00;;;;2070630;28;20209;-64
2023/11/16 02:58:14;;;;;;;3.90;2.10;;;;;20.70;100429.00;;;;2061375;28;20210;-64
2023/11/16 02:59:14;;;;;;;6.90;2.20;;;;;20.70;100427.00;;;;2071458;28;20747;-64
2023/11/16 03:00:15;;;;;;;4.47;2.30;;;;;20.70;100426.00;;;;2067763;28;20678;-64
2023/11/16 03:01:15;;;;;;;5.23;2.20;;;;;20.70;100427.00;;;;2071701;28;20221;-64
2023/11/16 03:02:17;;;;;;;4.80;2.20;;;;;20.70;100438.00;;;;2070570;28;20218;-64
2023/11/16 03:03:17;;;;;;;5.05;2.50;;;;;20.70;100428.00;;;;2062041;28;20956;-64
2023/11/16 03:04:18;;;;;;;5.50;2.17;;;;;20.70;100428.00;;;;2070794;28;20241;-64
2023/11/16 03:05:21;;;;;;;4.43;2.00;;;;;20.70;100438.00;;;;2057232;28;20216;-64
2023/11/16 03:06:21;;;;;;;5.60;2.70;;;;;20.70;100430.00;;;;2069603;28;20210;-64
2023/11/16 03:07:21;;;;;;;3.23;1.87;;;;;20.70;100440.00;;;;2076489;28;20276;-64
2023/11/16 03:08:22;;;;;;;4.40;2.33;;;;;20.70;100435.00;;;;2068950;28;20213;-64
2023/11/16 03:09:22;;;;;;;5.57;2.33;;;;;20.70;100439.00;;;;2070559;28;20218;-64
2023/11/16 03:10:23;;;;;;;4.30;2.00;;;;;20.70;100437.00;;;;2065520;28;20226;-64
2023/11/16 03:11:24;;;;;;;4.57;2.20;;;;;20.70;100440.00;;;;2070997;28;20206;-64
2023/11/16 03:12:24;;;;;;;6.73;2.20;;;;;20.70;100432.00;;;;2071075;28;20267;-64
2023/11/16 03:13:24;;;;;;;4.20;2.03;;;;;20.70;100429.00;;;;2061803;28;20798;-64
2023/11/16 03:14:25;;;;;;;4.27;1.97;;;;;20.70;100435.00;;;;2070506;28;20714;-64
2023/11/16 03:15:25;;;;;;;3.50;1.53;;;;;20.70;100428.00;;;;2071328;28;20233;-64
2023/11/16 03:16:28;;;;;;;3.77;1.93;;;;;20.60;100432.00;;;;2071237;28;20640;-64
2023/11/16 03:17:28;;;;;;;4.15;1.70;;;;;20.70;100431.00;;;;2071078;28;20301;-64
2023/11/16 03:18:29;;;;;;;3.43;1.87;;;;;20.60;100438.00;;;;2062002;28;20222;-64
2023/11/16 03:19:29;;;;;;;3.83;1.60;;;;;20.70;100433.00;;;;2070560;28;20562;-64
2023/11/16 03:20:29;;;;;;;3.40;1.47;;;;;20.60;100434.00;;;;2071579;28;20697;-64
2023/11/16 03:21:30;;;;;;;2.73;1.83;;;;;20.60;100432.00;;;;2070796;28;20805;-64
2023/11/16 03:22:30;;;;;;;4.17;1.80;;;;;20.70;100424.00;;;;2071929;28;20252;-64
2023/11/16 03:23:31;;;;;;;2.97;1.70;;;;;20.70;100430.00;;;;2061824;28;20223;-64
2023/11/16 03:24:31;;;;;;;3.93;2.13;;;;;20.70;100424.00;;;;2070951;28;20241;-64
2023/11/16 03:25:33;;;;;;;5.80;2.33;;;;;20.70;100431.00;;;;2071217;28;20580;-64
2023/11/16 03:26:34;;;;;;;4.22;1.70;;;;;20.60;100433.00;;;;2069737;28;20234;-64
2023/11/16 03:27:34;;;;;;;6.30;2.03;;;;;20.60;100426.00;;;;2071551;28;20229;-64
2023/11/16 03:28:37;;;;;;;5.87;2.20;;;;;20.60;100425.00;;;;2061528;28;20280;-64
2023/11/16 03:29:38;;;;;;;5.32;1.60;;;;;20.60;100426.00;;;;2072881;28;20218;-64
2023/11/16 03:30:39;;;;;;;3.30;1.52;;;;;20.60;100440.00;;;;2068690;28;20269;-64
2023/11/16 03:31:40;;;;;;;7.97;2.30;;;;;20.60;100440.00;;;;2070425;28;20309;-64
2023/11/16 03:32:41;;;;;;;5.30;1.93;;;;;20.60;100430.00;;;;2073064;28;20250;-64
2023/11/16 03:33:42;;;;;;;4.53;1.80;;;;;20.60;100419.00;;;;2062542;28;20480;-64
2023/11/16 03:34:42;;;;;;;5.05;2.03;;;;;20.60;100429.00;;;;2072303;28;20206;-64
2023/11/16 03:35:48;;;;;;;5.23;2.20;;;;;20.60;100430.00;;;;2071370;28;20283;-64
2023/11/16 03:36:49;;;;;;;3.75;1.80;;;;;20.60;100440.00;;;;2073254;28;20289;-64
2023/11/16 03:37:49;;;;;;;3.73;1.87;;;;;20.60;100426.00;;;;2072735;28;20210;-64
2023/11/16 03:38:50;;;;;;;5.70;1.87;;;;;20.60;100438.00;;;;2061100;28;20265;-64
2023/11/16 03:39:50;;;;;;;3.73;1.93;;;;;20.60;100434.00;;;;2077791;28;20236;-64
2023/11/16 03:40:51;;;;;;;2.70;1.60;;;;;20.60;100432.00;;;;2073981;28;20243;-64
2023/11/16 03:41:52;;;;;;;3.37;1.63;;;;;20.60;100441.00;;;;2072860;28;20640;-64
2023/11/16 03:42:52;;;;;;;4.55;1.90;;;;;20.60;100446.00;;;;2071906;28;20222;-64
2023/11/16 03:43:52;;;;;;;3.27;1.97;;;;;20.60;100433.00;;;;2063094;28;20202;-64
2023/11/16 03:44:53;;;;;;;3.47;1.73;;;;;20.60;100430.00;;;;2071622;28;20210;-64
2023/11/16 03:45:53;;;;;;;4.13;2.20;;;;;20.60;100435.00;;;;2070448;28;20213;-64
2023/11/16 03:46:54;;;;;;;3.50;1.57;;;;;20.60;100431.00;;;;2072927;28;20199;-64
2023/11/16 03:47:54;;;;;;;4.30;1.63;;;;;20.60;100433.00;;;;2072038;28;20322;-64
2023/11/16 03:48:54;;;;;;;4.37;1.63;;;;;20.60;100424.00;;;;2063297;28;20968;-64
2023/11/16 03:49:55;;;;;;;4.10;1.77;;;;;20.60;100424.00;;;;2072154;28;20709;-64
2023/11/16 03:50:55;;;;;;;5.27;1.80;;;;;20.60;100431.00;;;;2072936;28;20210;-64
2023/11/16 03:51:57;;;;;;;5.40;1.90;;;;;20.60;100433.00;;;;2072861;28;20218;-64
2023/11/16 03:52:57;;;;;;;3.35;1.73;;;;;20.60;100421.00;;;;2071734;28;20218;-64
2023/11/16 03:53:57;;;;;;;3.30;1.50;;;;;20.60;100428.00;;;;2063205;28;20238;-64
2023/11/16 03:54:58;;;;;;;3.27;1.70;;;;;20.60;100396.00;;;;2071956;28;20214;-64
2023/11/16 03:55:59;;;;;;;3.80;2.07;;;;;20.60;100430.00;;;;2072906;28;20666;-64
2023/11/16 03:57:00;;;;;;;5.10;2.00;;;;;20.60;100428.00;;;;2071222;28;20981;-64
2023/11/16 03:58:00;;;;;;;3.90;1.70;;;;;20.60;100433.00;;;;2072878;28;20242;-64
2023/11/16 03:59:01;;;;;;;3.80;1.90;;;;;20.60;100441.00;;;;2063274;28;20214;-64
2023/11/16 04:00:01;;;;;;;3.50;1.70;;;;;20.60;100426.00;;;;2071865;28;20222;-64
2023/11/16 04:01:02;;;;;;;4.33;1.80;;;;;20.60;100430.00;;;;2072850;28;20222;-64
2023/11/16 04:02:05;;;;;;;4.18;2.03;;;;;20.50;100426.00;;;;2070130;28;20308;-64
2023/11/16 04:03:06;;;;;;;4.07;1.65;;;;;20.60;100431.00;;;;2062328;28;20745;-64
2023/11/16 04:04:10;;;;;;;4.13;1.77;;;;;20.60;100428.00;;;;2071960;28;20221;-64
2023/11/16 04:05:10;;;;;;;5.03;2.05;;;;;20.60;100430.00;;;;2071406;28;20240;-64
2023/11/16 04:06:19;;;;;;;3.10;1.57;;;;;20.60;100428.00;;;;2072076;28;20210;-64
2023/11/16 04:07:20;;;;;;;4.57;2.05;;;;;20.60;100429.00;;;;2071845;28;20273;-64
2023/11/16 04:08:20;;;;;;;5.67;2.10;;;;;20.50;100425.00;;;;2062671;28;20263;-64
2023/11/16 04:09:24;;;;;;;2.50;1.57;;;;;20.60;100425.00;;;;2073145;28;20206;-64
2023/11/16 04:10:24;;;;;;;4.32;1.80;;;;;20.50;100429.00;;;;2070069;28;20214;-64
2023/11/16 04:11:24;;;;;;;5.07;1.70;;;;;20.50;100424.00;;;;2072097;28;20218;-64
2023/11/16 04:12:25;;;;;;;4.90;1.90;;;;;20.50;100430.00;;;;2072785;28;20225;-64
2023/11/16 04:13:25;;;;;;;3.20;1.63;;;;;20.50;100424.00;;;;2062767;28;20890;-64
2023/11/16 04:14:25;;;;;;;3.60;1.97;;;;;20.50;100433.00;;;;2071944;28;20666;-64
2023/11/16 04:15:26;;;;;;;5.60;2.00;;;;;20.50;100438.00;;;;2072307;28;20678;-64
2023/11/16 04:16:27;;;;;;;3.47;1.80;;;;;20.50;100428.00;;;;2071697;28;20226;-64
2023/11/16 04:17:27;;;;;;;3.57;1.50;;;;;20.60;100436.00;;;;2072756;28;20702;-64
2023/11/16 04:18:28;;;;;;;3.43;2.00;;;;;20.50;100435.00;;;;2061108;28;20833;-64
2023/11/16 04:19:28;;;;;;;2.50;1.33;;;;;20.60;100430.00;;;;2066051;28;20206;-64
2023/11/16 04:20:29;;;;;;;2.70;1.70;;;;;20.50;100432.00;;;;2071207;28;20237;-64
2023/11/16 04:21:30;;;;;;;4.60;1.73;;;;;20.50;100437.00;;;;2071799;28;20206;-64
2023/11/16 04:22:30;;;;;;;4.57;1.93;;;;;20.60;100435.00;;;;2071849;28;20461;-64
2023/11/16 04:23:31;;;;;;;3.43;1.70;;;;;20.60;100424.00;;;;2061318;28;20218;-64
2023/11/16 04:24:31;;;;;;;5.40;1.90;;;;;20.50;100430.00;;;;2080126;28;20248;-64
2023/11/16 04:25:33;;;;;;;3.57;1.63;;;;;20.50;100432.00;;;;2075848;28;20206;-64
2023/11/16 04:26:36;;;;;;;3.72;1.40;;;;;20.50;100430.00;;;;2072561;28;20272;-64
2023/11/16 04:27:37;;;;;;;3.30;1.65;;;;;20.50;100433.00;;;;2072595;28;20229;-64
2023/11/16 04:28:38;;;;;;;4.57;1.95;;;;;20.50;100390.00;;;;2060663;28;20212;-64
2023/11/16 04:29:40;;;;;;;3.50;1.70;;;;;20.50;100429.00;;;;2072397;28;20300;-64
2023/11/16 04:30:41;;;;;;;4.55;1.63;;;;;20.50;100394.00;;;;2071751;28;20708;-64
2023/11/16 04:31:42;;;;;;;3.33;1.70;;;;;20.50;100421.00;;;;2071750;28;20218;-64
2023/11/16 04:32:45;;;;;;;3.28;1.88;;;;;20.50;100424.00;;;;2071555;28;20214;-64
2023/11/16 04:33:47;;;;;;;3.78;1.92;;;;;20.50;100421.00;;;;2061693;28;20210;-64
2023/11/16 04:34:47;;;;;;;3.83;1.92;;;;;20.50;100421.00;;;;2071774;28;20234;-64
2023/11/16 04:35:47;;;;;;;3.23;1.40;;;;;20.50;100420.00;;;;2070832;28;20571;-64
2023/11/16 04:36:49;;;;;;;6.17;1.73;;;;;20.50;100420.00;;;;2072493;28;20570;-64
2023/11/16 04:37:49;;;;;;;3.15;1.70;;;;;20.50;100421.00;;;;2071508;28;20302;-64
2023/11/16 04:38:50;;;;;;;6.03;1.80;;;;;20.50;100417.00;;;;2062908;28;20218;-64
2023/11/16 04:39:50;;;;;;;4.50;1.75;;;;;20.50;100418.00;;;;2071047;28;20218;-64
2023/11/16 04:40:51;;;;;;;5.17;1.90;;;;;20.50;100418.00;;;;2072135;28;20206;-64
2023/11/16 04:41:51;;;;;;;7.90;1.70;;;;;20.50;100420.00;;;;2072653;28;20214;-64
2023/11/16 04:42:51;;;;;;;3.90;1.77;;;;;20.50;100417.00;;;;2075826;28;20295;-64
2023/11/16 04:43:55;;;;;;;5.73;1.93;;;;;20.50;100411.00;;;;2065245;28;20210;-66
2023/11/16 04:44:55;;;;;;;4.57;1.80;;;;;20.50;100411.00;;;;2068243;28;20596;-64
2023/11/16 04:45:56;;;;;;;3.97;1.80;;;;;20.50;100381.00;;;;2069584;28;20230;-64
2023/11/16 04:46:56;;;;;;;3.60;1.90;;;;;20.50;100416.00;;;;2070446;28;20214;-64
2023/11/16 04:47:58;;;;;;;2.90;1.47;;;;;20.50;100412.00;;;;2070579;28;20217;-64
2023/11/16 04:49:00;;;;;;;5.38;1.55;;;;;20.50;100411.00;;;;2062689;28;20302;-64
2023/11/16 04:50:00;;;;;;;4.57;1.80;;;;;20.50;100412.00;;;;2074905;28;20241;-64
2023/11/16 04:51:03;;;;;;;3.97;1.60;;;;;20.50;100414.00;;;;2073798;28;20587;-64
2023/11/16 04:52:03;;;;;;;3.45;1.40;;;;;20.50;100417.00;;;;2073476;28;20226;-64
2023/11/16 04:53:04;;;;;;;3.63;1.48;;;;;20.50;100413.00;;;;2067008;28;20768;-64
2023/11/16 04:54:05;;;;;;;3.67;1.60;;;;;20.50;100386.00;;;;2069190;28;20221;-64
2023/11/16 04:55:06;;;;;;;3.37;1.70;;;;;20.50;100358.00;;;;2071441;28;20213;-64
2023/11/16 04:56:07;;;;;;;4.60;1.77;;;;;20.50;100410.00;;;;2072230;28;21082;-64
2023/11/16 04:57:07;;;;;;;4.03;1.63;;;;;20.50;100411.00;;;;2067618;28;20290;-64
2023/11/16 04:58:08;;;;;;;3.40;1.70;;;;;20.50;100418.00;;;;2061625;28;20271;-64
2023/11/16 04:59:11;;;;;;;3.97;1.80;;;;;20.50;100418.00;;;;2069375;28;20207;-64
2023/11/16 05:00:13;;;;;;;2.67;1.55;;;;;20.50;100415.00;;;;2071689;28;20774;-64
2023/11/16 05:01:14;;;;;;;8.15;2.30;;;;;20.50;100411.00;;;;2071809;28;20213;-64